Time;durP1;ratioP1;P1;durP2;ratioP2;P2;SDS_P1;SDS_P2;PMS_P1;PMS_P2;Temp;Humidity;BMP_temperature;BMP_pressure;BME280_temperature;BME280_humidity;BME280_pressure;Samples;Min_cycle;Max_cycle;Signal;HPM_P1;HPM_P2
2022/06/24 00:00:06;;;;;;;4.03;2.50;;;18.50;99.90;;;;;;5056847;28;20506;-85
2022/06/24 00:02:33;;;;;;;3.57;2.97;;;18.60;99.90;;;;;;5056878;28;20460;-85
2022/06/24 00:05:07;;;;;;;3.00;2.43;;;18.70;99.90;;;;;;5056743;28;20465;-83
2022/06/24 00:07:45;;;;;;;4.60;3.63;;;18.70;99.90;;;;;;5058486;28;20466;-84
2022/06/24 00:10:14;;;;;;;2.83;2.50;;;18.80;99.90;;;;;;5059507;28;20815;-82
2022/06/24 00:12:41;;;;;;;6.00;3.13;;;18.80;99.90;;;;;;5059790;28;20448;-85
2022/06/24 00:15:08;;;;;;;2.40;2.03;;;18.90;99.90;;;;;;5059490;28;21022;-85
2022/06/24 00:17:35;;;;;;;3.93;2.77;;;18.90;99.90;;;;;;5060134;28;20452;-86
2022/06/24 00:20:06;;;;;;;2.47;2.37;;;18.90;99.90;;;;;;5060042;28;21036;-84
2022/06/24 00:22:41;;;;;;;3.20;2.90;;;18.90;99.90;;;;;;5060440;28;20968;-84
2022/06/24 00:25:10;;;;;;;3.90;2.27;;;18.90;99.90;;;;;;5059747;28;20447;-85
2022/06/24 00:27:39;;;;;;;3.20;2.93;;;18.90;99.90;;;;;;5060121;28;20983;-85
2022/06/24 00:30:11;;;;;;;2.63;2.43;;;18.90;99.90;;;;;;5060510;28;20468;-82
2022/06/24 00:32:38;;;;;;;4.30;2.97;;;19.00;99.90;;;;;;5058524;28;20452;-84
2022/06/24 00:35:09;;;;;;;4.23;3.83;;;19.00;99.90;;;;;;5058461;28;20483;-84
2022/06/24 00:37:37;;;;;;;3.53;2.80;;;19.00;99.90;;;;;;5059205;28;20978;-85
2022/06/24 00:40:24;;;;;;;7.53;3.60;;;19.00;99.90;;;;;;5059704;28;20467;-81
2022/06/24 00:42:52;;;;;;;3.20;2.93;;;19.00;99.90;;;;;;5063348;28;20457;-83
2022/06/24 00:45:29;;;;;;;6.10;3.63;;;19.00;99.90;;;;;;5062352;28;20441;-85
2022/06/24 00:47:57;;;;;;;3.13;2.80;;;19.00;99.90;;;;;;5059610;28;20466;-85
2022/06/24 00:50:27;;;;;;;4.80;4.00;;;19.00;99.90;;;;;;5060436;28;20471;-85
2022/06/24 00:52:55;;;;;;;5.87;2.80;;;18.90;99.90;;;;;;5061613;28;20479;-84
2022/06/24 00:55:29;;;;;;;5.60;3.37;;;18.90;99.90;;;;;;5060052;28;20481;-85
2022/06/24 00:57:58;;;;;;;4.13;3.47;;;18.80;99.90;;;;;;5060766;28;20440;-84
2022/06/24 01:00:27;;;;;;;5.20;3.20;;;18.80;99.90;;;;;;5059377;28;20847;-85
2022/06/24 01:02:58;;;;;;;7.67;4.93;;;18.70;99.90;;;;;;5059541;28;20467;-83
2022/06/24 01:05:25;;;;;;;4.30;3.17;;;18.70;99.90;;;;;;5057034;28;20444;-84
2022/06/24 01:07:52;;;;;;;5.63;4.30;;;18.70;99.90;;;;;;5056822;28;20448;-84
2022/06/24 01:10:19;;;;;;;5.50;3.60;;;18.70;99.90;;;;;;5056315;28;20478;-83
2022/06/24 01:12:46;;;;;;;5.00;3.73;;;18.60;99.90;;;;;;5055790;28;20447;-83
2022/06/24 01:15:14;;;;;;;6.40;3.93;;;18.60;99.90;;;;;;5058939;28;20503;-85
2022/06/24 01:17:41;;;;;;;5.33;4.00;;;18.60;99.90;;;;;;5060143;28;20482;-85
2022/06/24 01:20:10;;;;;;;4.33;3.90;;;18.60;99.90;;;;;;5061680;28;20483;-84
2022/06/24 01:22:38;;;;;;;7.17;3.70;;;18.60;99.90;;;;;;5060859;28;20505;-85
2022/06/24 01:25:06;;;;;;;6.10;4.27;;;18.60;99.90;;;;;;5059040;28;20819;-84
2022/06/24 01:27:33;;;;;;;6.93;4.60;;;18.60;99.90;;;;;;5058395;28;20456;-85
2022/06/24 01:30:00;;;;;;;6.57;4.07;;;18.60;99.90;;;;;;5058892;28;20535;-83
2022/06/24 01:32:27;;;;;;;3.20;3.00;;;18.50;99.90;;;;;;5064560;28;20454;-86
2022/06/24 01:34:56;;;;;;;4.20;3.87;;;18.50;99.90;;;;;;5062796;28;20498;-83
2022/06/24 01:37:22;;;;;;;11.00;5.27;;;18.40;99.90;;;;;;5058836;28;20444;-85
2022/06/24 01:39:51;;;;;;;5.83;5.30;;;18.40;99.90;;;;;;5059077;28;20456;-84
2022/06/24 01:42:17;;;;;;;4.00;3.70;;;18.20;99.90;;;;;;5059225;28;20451;-86
2022/06/24 01:44:44;;;;;;;3.27;2.97;;;18.20;99.90;;;;;;5058966;28;20964;-82
2022/06/24 01:50:33;;;;;;;3.53;3.00;;;18.20;99.90;;;;;;5035448;28;20535;-82
2022/06/24 01:52:59;;;;;;;4.20;3.80;;;18.20;99.90;;;;;;5043246;28;20957;-83
2022/06/24 01:55:27;;;;;;;5.17;3.10;;;18.10;99.90;;;;;;5057700;28;20489;-85
2022/06/24 01:57:54;;;;;;;3.93;3.47;;;18.10;99.90;;;;;;5058891;28;20456;-85
2022/06/24 02:00:21;;;;;;;9.00;3.87;;;18.10;99.90;;;;;;5057366;28;20479;-82
2022/06/24 02:02:48;;;;;;;7.63;3.60;;;18.10;99.90;;;;;;5056435;28;20460;-83
2022/06/24 02:05:15;;;;;;;4.33;3.90;;;18.10;99.90;;;;;;5057627;28;20450;-81
2022/06/24 02:07:42;;;;;;;6.20;4.57;;;18.20;99.90;;;;;;5057809;28;20826;-85
2022/06/24 02:15:40;;;;;;;5.43;3.83;;;18.20;99.90;;;;;;5059383;28;20638;-86
2022/06/24 02:18:08;;;;;;;4.10;3.67;;;18.20;99.90;;;;;;5059099;28;20460;-85
2022/06/24 02:20:35;;;;;;;5.03;3.97;;;18.20;99.90;;;;;;5061137;28;20517;-81
2022/06/24 02:23:02;;;;;;;5.60;4.10;;;18.20;99.90;;;;;;5065757;28;20451;-85
2022/06/24 02:25:29;;;;;;;4.93;3.70;;;18.20;99.90;;;;;;5061612;28;20544;-86
2022/06/24 02:27:57;;;;;;;4.07;3.77;;;18.20;99.90;;;;;;5060808;28;20462;-85
2022/06/24 02:30:25;;;;;;;6.00;4.70;;;18.20;99.90;;;;;;5060068;28;20467;-85
2022/06/24 02:32:52;;;;;;;7.53;4.50;;;18.10;99.90;;;;;;5060140;28;20459;-83
2022/06/24 02:35:19;;;;;;;5.27;4.50;;;18.00;99.90;;;;;;5060243;28;20549;-85
2022/06/24 02:37:46;;;;;;;4.67;4.27;;;18.00;99.90;;;;;;5060421;28;20456;-85
2022/06/24 02:42:59;;;;;;;5.70;4.17;;;17.90;99.90;;;;;;5059909;28;20453;-85
2022/06/24 02:45:26;;;;;;;3.80;3.57;;;17.80;99.90;;;;;;5059454;28;20455;-84
2022/06/24 02:47:53;;;;;;;4.27;3.93;;;17.70;99.90;;;;;;5059495;28;20560;-85
2022/06/24 02:50:19;;;;;;;3.27;3.00;;;17.70;99.90;;;;;;5059452;28;20473;-86
2022/06/24 02:52:46;;;;;;;3.70;3.30;;;17.70;99.90;;;;;;5059355;28;20467;-85
2022/06/24 02:55:13;;;;;;;3.53;3.23;;;17.60;99.90;;;;;;5059901;28;20490;-86
2022/06/24 02:57:39;;;;;;;5.20;3.90;;;17.60;99.90;;;;;;5060221;28;20451;-84
2022/06/24 03:00:09;;;;;;;4.03;3.63;;;17.60;99.90;;;;;;5059532;28;20493;-80
2022/06/24 03:02:36;;;;;;;3.83;3.27;;;17.60;99.90;;;;;;5060220;28;20463;-83
2022/06/24 03:05:03;;;;;;;5.40;4.03;;;17.60;99.90;;;;;;5060017;28;20446;-84
2022/06/24 03:07:30;;;;;;;5.47;3.63;;;17.60;99.90;;;;;;5059886;28;20459;-86
2022/06/24 03:09:56;;;;;;;5.40;4.00;;;17.60;99.90;;;;;;5061634;28;20457;-83
2022/06/24 03:12:23;;;;;;;3.97;3.60;;;17.60;99.90;;;;;;5064990;28;20450;-85
2022/06/24 03:14:50;;;;;;;5.17;3.77;;;17.50;99.90;;;;;;5059893;28;20459;-86
2022/06/24 03:17:18;;;;;;;6.70;4.10;;;17.50;99.90;;;;;;5058602;28;20450;-84
2022/06/24 03:19:45;;;;;;;5.50;4.53;;;17.40;99.90;;;;;;5059255;28;20447;-85
2022/06/24 03:22:11;;;;;;;4.17;3.87;;;17.30;99.90;;;;;;5059065;28;20529;-85
2022/06/24 03:24:38;;;;;;;5.27;4.20;;;17.30;99.90;;;;;;5060009;28;20530;-85
2022/06/24 03:27:05;;;;;;;4.53;4.03;;;17.40;99.90;;;;;;5059853;28;20453;-84
2022/06/24 03:29:32;;;;;;;5.10;4.50;;;17.40;99.90;;;;;;5059769;28;20461;-85
2022/06/24 03:31:59;;;;;;;4.60;3.87;;;17.40;99.90;;;;;;5058952;28;20480;-84
2022/06/24 03:34:27;;;;;;;4.80;4.40;;;17.40;99.90;;;;;;5059948;28;20461;-85
2022/06/24 03:36:54;;;;;;;6.17;4.40;;;17.40;99.90;;;;;;5059810;28;20485;-85
2022/06/24 03:39:21;;;;;;;6.97;4.30;;;17.40;99.90;;;;;;5059809;28;20450;-85
2022/06/24 03:41:47;;;;;;;10.10;3.90;;;17.40;99.90;;;;;;5071641;22;21021;-83
2022/06/24 03:44:14;;;;;;;4.50;4.10;;;17.40;99.90;;;;;;5055322;28;20467;-83
2022/06/24 03:46:41;;;;;;;4.67;3.70;;;17.40;99.90;;;;;;5055945;28;20440;-82
2022/06/24 03:49:08;;;;;;;6.23;4.00;;;17.50;99.90;;;;;;5055294;28;20981;-82
2022/06/24 03:51:37;;;;;;;7.20;4.83;;;17.50;99.90;;;;;;5054840;28;20477;-82
2022/06/24 03:54:05;;;;;;;6.00;4.90;;;17.50;99.90;;;;;;5055532;28;20436;-83
2022/06/24 03:56:31;;;;;;;5.77;4.03;;;17.50;99.90;;;;;;5054916;28;20478;-82
2022/06/24 03:58:58;;;;;;;4.40;3.67;;;17.50;99.90;;;;;;5055568;28;20461;-82
2022/06/24 04:01:25;;;;;;;6.03;5.10;;;17.50;99.90;;;;;;5054821;28;20474;-82
2022/06/24 04:03:53;;;;;;;6.10;4.53;;;17.50;99.90;;;;;;5055594;28;20454;-82
2022/06/24 04:06:20;;;;;;;4.20;3.80;;;17.40;99.90;;;;;;5056239;28;20455;-82
2022/06/24 04:08:49;;;;;;;12.33;4.30;;;17.30;99.90;;;;;;5056061;28;20455;-82
2022/06/24 04:14:03;;;;;;;8.80;4.30;;;17.10;99.90;;;;;;5057070;28;20789;-82
2022/06/24 04:16:35;;;;;;;7.13;4.90;;;17.10;99.90;;;;;;5057148;28;20547;-82
2022/06/24 04:19:02;;;;;;;5.10;4.17;;;17.00;99.90;;;;;;5060643;28;20549;-82
2022/06/24 04:21:30;;;;;;;5.33;4.10;;;17.10;99.90;;;;;;5060597;28;20473;-82
2022/06/24 04:23:58;;;;;;;6.23;5.40;;;16.90;99.90;;;;;;5060152;28;20460;-82
2022/06/24 04:26:25;;;;;;;6.33;4.93;;;16.90;99.90;;;;;;5059850;28;20463;-82
2022/06/24 04:28:52;;;;;;;5.97;4.03;;;16.90;99.90;;;;;;5059392;28;20458;-82
2022/06/24 04:31:19;;;;;;;5.00;4.50;;;17.00;99.90;;;;;;5059420;28;20478;-82
2022/06/24 04:33:46;;;;;;;6.60;4.53;;;16.90;99.90;;;;;;5059198;28;20458;-82
2022/06/24 04:36:14;;;;;;;6.70;4.60;;;16.90;99.90;;;;;;5059512;28;20489;-82
2022/06/24 04:38:42;;;;;;;6.30;4.23;;;17.00;99.90;;;;;;5059835;28;20467;-82
2022/06/24 04:41:13;;;;;;;6.93;4.73;;;17.10;99.90;;;;;;5059460;28;20482;-82
2022/06/24 04:43:40;;;;;;;5.83;4.93;;;17.10;99.90;;;;;;5060235;28;20962;-82
2022/06/24 04:46:07;;;;;;;6.20;4.33;;;17.00;99.90;;;;;;5059978;28;20457;-82
2022/06/24 04:48:35;;;;;;;6.53;4.77;;;17.00;99.90;;;;;;5060389;28;20451;-82
2022/06/24 04:51:02;;;;;;;5.47;4.33;;;17.10;99.90;;;;;;5059608;28;20480;-82
2022/06/24 04:53:29;;;;;;;4.50;4.03;;;17.20;99.90;;;;;;5061110;28;20450;-82
2022/06/24 04:55:56;;;;;;;5.80;4.10;;;17.20;99.90;;;;;;5061105;28;20483;-82
2022/06/24 04:58:25;;;;;;;5.20;4.17;;;17.40;99.90;;;;;;5061053;28;20458;-82
2022/06/24 05:00:52;;;;;;;8.10;4.70;;;17.50;99.90;;;;;;5061047;28;20839;-82
2022/06/24 05:03:18;;;;;;;3.83;3.53;;;17.60;99.90;;;;;;5060869;28;20825;-82
2022/06/24 05:05:45;;;;;;;6.20;4.60;;;17.70;99.90;;;;;;5060954;28;20455;-82
2022/06/24 05:08:12;;;;;;;7.33;4.20;;;17.80;99.90;;;;;;5060890;28;20451;-82
2022/06/24 05:10:41;;;;;;;9.10;4.50;;;17.80;99.90;;;;;;5059931;28;20455;-82
2022/06/24 05:13:08;;;;;;;4.20;3.80;;;17.80;99.90;;;;;;5058452;28;20465;-82
2022/06/24 05:15:36;;;;;;;6.93;4.57;;;17.90;99.90;;;;;;5060573;28;20443;-82
2022/06/24 05:18:03;;;;;;;4.90;3.77;;;17.90;99.90;;;;;;5060496;28;20448;-82
2022/06/24 05:20:30;;;;;;;5.27;4.77;;;18.00;99.90;;;;;;5060411;28;20455;-82
2022/06/24 05:22:56;;;;;;;8.00;4.73;;;18.00;99.90;;;;;;5060614;28;20443;-82
2022/06/24 05:25:23;;;;;;;6.87;4.23;;;18.10;99.90;;;;;;5060283;28;20459;-82
2022/06/24 05:27:50;;;;;;;5.43;4.97;;;18.10;99.90;;;;;;5060140;28;20458;-82
2022/06/24 05:30:17;;;;;;;4.40;3.50;;;18.10;99.90;;;;;;5060260;28;20459;-82
2022/06/24 05:32:45;;;;;;;5.43;3.80;;;18.20;99.90;;;;;;5060208;28;20832;-82
2022/06/24 05:35:12;;;;;;;4.57;3.57;;;18.30;99.90;;;;;;5060897;28;20428;-82
2022/06/24 05:37:39;;;;;;;4.33;3.30;;;18.30;99.90;;;;;;5061819;28;20491;-82
2022/06/24 05:40:07;;;;;;;4.03;3.50;;;18.50;99.90;;;;;;5065311;28;20494;-82
2022/06/24 05:42:34;;;;;;;5.03;3.87;;;18.60;99.90;;;;;;5065232;28;20484;-82
2022/06/24 05:45:01;;;;;;;5.90;4.43;;;18.60;99.90;;;;;;5065649;28;20459;-82
2022/06/24 05:47:58;;;;;;;3.70;3.27;;;18.70;99.90;;;;;;5057086;28;20451;-86
2022/06/24 05:50:26;;;;;;;4.00;3.70;;;18.70;99.90;;;;;;5056996;28;20535;-85
2022/06/24 06:14:07;;;;;;;5.47;3.87;;;19.20;99.90;;;;;;4990975;28;20415;-87
2022/06/24 06:16:40;;;;;;;4.90;3.47;;;19.40;99.90;;;;;;5011213;28;20501;-85
2022/06/24 06:32:38;;;;;;;5.07;3.73;;;19.30;99.90;;;;;;5033549;28;20997;-85
2022/06/24 06:35:06;;;;;;;4.73;4.00;;;19.50;99.90;;;;;;5045447;28;20464;-85
2022/06/24 06:37:33;;;;;;;3.50;3.20;;;19.60;99.90;;;;;;5046738;28;20491;-83
2022/06/24 06:40:00;;;;;;;7.10;3.60;;;19.70;99.90;;;;;;5045959;28;20453;-82
2022/06/24 06:42:27;;;;;;;5.10;3.53;;;19.70;99.90;;;;;;5041887;28;20464;-81
2022/06/24 06:44:55;;;;;;;6.37;3.67;;;19.90;99.90;;;;;;5045414;28;20524;-81
2022/06/24 06:47:23;;;;;;;8.43;3.97;;;19.90;99.90;;;;;;5042774;28;20481;-85
2022/06/24 06:50:08;;;;;;;5.00;3.63;;;20.00;99.90;;;;;;5051707;28;20451;-85
2022/06/24 06:52:35;;;;;;;3.73;3.33;;;20.10;99.90;;;;;;5050092;28;20822;-85
2022/06/24 06:55:02;;;;;;;4.37;4.00;;;20.30;99.90;;;;;;5052188;28;20455;-85
2022/06/24 06:57:30;;;;;;;3.50;3.30;;;20.40;99.90;;;;;;5051909;28;20484;-85
2022/06/24 07:03:11;;;;;;;4.03;3.73;;;20.40;99.90;;;;;;5011795;28;20523;-81
2022/06/24 07:05:39;;;;;;;5.23;3.70;;;20.50;99.90;;;;;;5053635;28;20437;-83
2022/06/24 07:08:06;;;;;;;5.63;4.23;;;20.60;99.90;;;;;;5054106;28;20451;-82
2022/06/24 07:10:33;;;;;;;3.60;3.40;;;20.60;99.90;;;;;;5054722;28;20451;-82
2022/06/24 07:13:00;;;;;;;4.57;4.17;;;20.60;99.90;;;;;;5055412;28;20440;-82
2022/06/24 07:15:26;;;;;;;4.77;3.70;;;20.70;99.90;;;;;;5055361;28;20949;-82
2022/06/24 07:17:53;;;;;;;4.13;3.30;;;20.80;99.90;;;;;;5055972;28;20496;-82
2022/06/24 07:20:20;;;;;;;5.90;4.10;;;21.00;99.90;;;;;;5054165;28;20929;-82
2022/06/24 07:22:48;;;;;;;6.30;3.67;;;21.10;99.90;;;;;;5054839;28;20474;-82
2022/06/24 07:25:14;;;;;;;3.83;3.53;;;21.20;99.90;;;;;;5055422;28;20452;-82
2022/06/24 07:27:41;;;;;;;2.97;2.67;;;21.10;99.90;;;;;;5055803;28;20449;-82
2022/06/24 07:30:09;;;;;;;3.60;3.30;;;21.20;99.90;;;;;;5055586;28;20845;-82
2022/06/24 07:32:36;;;;;;;3.33;3.07;;;21.10;99.90;;;;;;5055421;28;20506;-82
2022/06/24 07:35:02;;;;;;;3.83;3.53;;;21.10;99.90;;;;;;5056273;28;20459;-82
2022/06/24 07:37:29;;;;;;;2.57;2.40;;;21.10;99.90;;;;;;5055121;28;20480;-82
2022/06/24 07:39:57;;;;;;;4.63;3.40;;;21.00;99.90;;;;;;5054895;28;20448;-82
2022/06/24 07:42:24;;;;;;;5.17;2.87;;;21.00;99.90;;;;;;5054499;28;20480;-82
2022/06/24 07:44:51;;;;;;;3.37;2.60;;;21.10;99.90;;;;;;5055825;28;20449;-82
2022/06/24 07:47:17;;;;;;;2.90;2.70;;;21.20;99.90;;;;;;5055365;28;20456;-82
2022/06/24 07:49:44;;;;;;;4.60;3.13;;;21.10;99.90;;;;;;5054594;28;20450;-82
2022/06/24 07:52:11;;;;;;;5.87;3.30;;;21.20;99.90;;;;;;5056095;28;20470;-82
2022/06/24 07:54:38;;;;;;;3.17;2.90;;;21.30;99.90;;;;;;5058334;28;20454;-82
2022/06/24 07:57:05;;;;;;;3.83;3.43;;;21.20;99.90;;;;;;5057958;28;20500;-82
2022/06/24 07:59:34;;;;;;;3.33;3.13;;;21.20;99.90;;;;;;5057579;28;20472;-82
2022/06/24 08:02:02;;;;;;;2.97;2.63;;;21.30;99.90;;;;;;5057696;28;20472;-82
2022/06/24 08:04:30;;;;;;;2.83;2.53;;;21.40;99.90;;;;;;5057803;28;20447;-82
2022/06/24 08:06:57;;;;;;;2.30;2.20;;;21.50;99.90;;;;;;5057378;28;20457;-82
2022/06/24 08:09:26;;;;;;;2.50;2.30;;;21.60;99.90;;;;;;5057075;28;20446;-83
2022/06/24 08:11:53;;;;;;;2.50;2.30;;;21.60;99.90;;;;;;5056448;28;20460;-83
2022/06/24 08:14:22;;;;;;;3.10;2.90;;;21.60;99.90;;;;;;5056699;28;20458;-83
2022/06/24 08:16:49;;;;;;;2.90;2.60;;;21.70;99.90;;;;;;5056226;28;20480;-83
2022/06/24 08:19:16;;;;;;;3.37;2.27;;;21.70;99.90;;;;;;5056154;28;20457;-83
2022/06/24 08:21:43;;;;;;;2.40;2.20;;;21.90;99.90;;;;;;5055598;28;20474;-83
2022/06/24 08:24:10;;;;;;;2.80;2.60;;;21.90;99.90;;;;;;5055606;28;20537;-82
2022/06/24 08:26:37;;;;;;;4.53;3.10;;;21.80;99.90;;;;;;5056112;28;20447;-85
2022/06/24 08:29:04;;;;;;;4.07;2.90;;;21.90;99.90;;;;;;5056056;28;20454;-83
2022/06/24 08:31:32;;;;;;;3.40;3.10;;;22.00;99.90;;;;;;5054441;28;20502;-83
2022/06/24 08:33:59;;;;;;;2.70;2.50;;;22.10;99.90;;;;;;5055695;28;20458;-83
2022/06/24 08:36:26;;;;;;;5.90;2.67;;;22.10;99.90;;;;;;5055319;28;20471;-83
2022/06/24 08:38:54;;;;;;;2.70;2.50;;;22.30;99.90;;;;;;5055023;28;20975;-83
2022/06/24 08:41:23;;;;;;;2.63;2.43;;;22.50;99.90;;;;;;5054014;28;20517;-83
2022/06/24 08:43:52;;;;;;;4.20;2.50;;;22.50;99.90;;;;;;5055316;28;20446;-83
2022/06/24 08:46:19;;;;;;;2.43;2.33;;;22.70;99.90;;;;;;5054883;28;20454;-83
2022/06/24 08:48:48;;;;;;;5.10;2.50;;;22.90;99.90;;;;;;5054608;28;20454;-83
2022/06/24 08:51:15;;;;;;;2.50;2.30;;;23.00;99.90;;;;;;5054805;28;20468;-83
2022/06/24 08:53:43;;;;;;;2.50;2.20;;;23.10;99.90;;;;;;5054759;28;20452;-83
2022/06/24 08:56:10;;;;;;;2.73;2.53;;;23.30;99.90;;;;;;5054468;28;20449;-83
2022/06/24 08:58:37;;;;;;;3.23;2.90;;;23.30;99.90;;;;;;5054295;28;20495;-83
2022/06/24 09:01:04;;;;;;;2.70;2.50;;;23.20;99.90;;;;;;5053856;28;20563;-83
2022/06/24 09:03:31;;;;;;;2.90;2.70;;;23.30;99.90;;;;;;5053551;28;20455;-84
2022/06/24 09:05:59;;;;;;;2.23;2.13;;;23.10;99.90;;;;;;5054504;28;20452;-83
2022/06/24 09:08:33;;;;;;;4.53;2.43;;;23.10;99.90;;;;;;5054312;28;20455;-83
2022/06/24 09:11:07;;;;;;;2.83;2.40;;;23.30;99.90;;;;;;5053984;28;20466;-83
2022/06/24 09:13:42;;;;;;;2.50;2.23;;;23.40;99.90;;;;;;5054004;28;20445;-83
2022/06/24 09:16:10;;;;;;;2.87;2.40;;;23.50;99.90;;;;;;5054326;28;20502;-83
2022/06/24 09:18:37;;;;;;;2.30;2.20;;;23.70;99.90;;;;;;5053972;28;20488;-84
2022/06/24 09:21:05;;;;;;;4.97;2.67;;;23.70;99.90;;;;;;5053975;28;20475;-83
2022/06/24 09:23:32;;;;;;;2.57;2.37;;;23.90;99.90;;;;;;5053913;28;20484;-83
2022/06/24 09:26:01;;;;;;;2.40;2.20;;;24.10;99.90;;;;;;5054137;28;20455;-84
2022/06/24 09:28:29;;;;;;;2.40;2.30;;;24.20;99.90;;;;;;5054043;28;20856;-84
2022/06/24 09:31:01;;;;;;;2.67;2.47;;;24.20;99.90;;;;;;5053789;28;20506;-83
2022/06/24 09:33:27;;;;;;;4.00;2.20;;;24.40;99.40;;;;;;5054069;28;20841;-84
2022/06/24 09:36:00;;;;;;;2.50;2.30;;;24.60;98.90;;;;;;5053773;28;20825;-84
2022/06/24 09:38:28;;;;;;;2.57;2.37;;;24.60;97.80;;;;;;5053650;28;20573;-84
2022/06/24 09:41:01;;;;;;;3.00;2.80;;;24.70;97.70;;;;;;5054067;28;20480;-83
2022/06/24 09:43:30;;;;;;;3.87;2.40;;;24.90;98.00;;;;;;5065186;28;20948;-83
2022/06/24 09:45:56;;;;;;;3.00;2.70;;;25.10;97.00;;;;;;5065244;28;20452;-83
2022/06/24 09:48:28;;;;;;;3.27;2.40;;;25.00;98.30;;;;;;5064438;28;20961;-83
2022/06/24 09:50:56;;;;;;;2.87;2.67;;;25.00;98.00;;;;;;5065868;28;20480;-83
2022/06/24 09:53:24;;;;;;;3.00;2.70;;;24.80;97.60;;;;;;5067606;28;20470;-83
2022/06/24 09:55:53;;;;;;;2.53;2.33;;;24.80;98.70;;;;;;5067314;28;20457;-83
2022/06/24 09:58:20;;;;;;;2.47;2.27;;;25.10;98.00;;;;;;5063517;28;20481;-83
2022/06/24 10:00:47;;;;;;;1.47;1.37;;;25.50;98.20;;;;;;5060003;28;20457;-83
2022/06/24 10:03:14;;;;;;;2.63;2.10;;;25.70;95.90;;;;;;5066052;28;20455;-82
2022/06/24 10:05:42;;;;;;;2.20;2.00;;;25.90;94.80;;;;;;5067197;28;20457;-83
2022/06/24 10:08:11;;;;;;;2.57;2.03;;;25.60;96.30;;;;;;5068157;28;20503;-82
2022/06/24 10:10:43;;;;;;;2.50;2.30;;;25.60;95.40;;;;;;5064212;28;20454;-82
2022/06/24 10:13:24;;;;;;;2.43;2.23;;;25.40;96.00;;;;;;5062398;28;20442;-83
2022/06/24 10:15:51;;;;;;;1.70;1.60;;;25.40;96.60;;;;;;5062536;28;20456;-82
2022/06/24 10:18:19;;;;;;;2.37;2.17;;;25.40;94.90;;;;;;5061835;28;20487;-82
2022/06/24 10:20:47;;;;;;;2.60;2.33;;;25.70;95.30;;;;;;5062574;28;20447;-82
2022/06/24 10:23:36;;;;;;;3.10;2.20;;;25.90;96.20;;;;;;5062778;28;20462;-83
2022/06/24 10:26:14;;;;;;;2.63;1.70;;;26.30;95.20;;;;;;5060773;28;20538;-82
2022/06/24 10:29:20;;;;;;;2.67;2.53;;;26.50;94.00;;;;;;5054247;28;20453;-84
2022/06/24 10:32:07;;;;;;;2.23;2.13;;;26.60;92.70;;;;;;4989683;28;21327;-85
2022/06/24 10:34:40;;;;;;;2.17;1.97;;;26.60;92.10;;;;;;5052421;28;20456;-83
2022/06/24 10:37:23;;;;;;;2.10;1.90;;;26.90;92.70;;;;;;5053054;28;20457;-83
2022/06/24 10:39:52;;;;;;;2.20;2.00;;;27.20;93.40;;;;;;5061593;28;20448;-82
2022/06/24 10:42:21;;;;;;;2.80;2.10;;;27.10;91.10;;;;;;5059470;28;20480;-82
2022/06/24 10:45:00;;;;;;;1.87;1.77;;;27.00;91.50;;;;;;5061106;28;20499;-82
2022/06/24 10:47:29;;;;;;;2.13;1.97;;;27.00;91.30;;;;;;5061372;28;20449;-82
2022/06/24 10:50:13;;;;;;;2.10;2.00;;;26.90;92.40;;;;;;5060110;28;20507;-82
2022/06/24 10:52:43;;;;;;;2.50;2.33;;;26.60;92.30;;;;;;5060696;28;21260;-82
2022/06/24 10:55:32;;;;;;;2.07;1.97;;;26.70;91.60;;;;;;5060529;28;20442;-82
2022/06/24 10:58:01;;;;;;;2.10;1.90;;;26.80;92.70;;;;;;5058476;28;20857;-82
2022/06/24 11:00:41;;;;;;;3.50;2.80;;;26.90;91.90;;;;;;5057213;28;20554;-82
2022/06/24 11:03:14;;;;;;;3.87;2.03;;;26.80;91.20;;;;;;5057081;28;20453;-82
2022/06/24 11:05:44;;;;;;;2.33;2.20;;;26.80;91.00;;;;;;5056229;28;20451;-82
2022/06/24 11:08:13;;;;;;;2.60;2.40;;;26.70;91.20;;;;;;5055957;28;20475;-82
2022/06/24 11:10:41;;;;;;;2.93;2.60;;;26.70;91.50;;;;;;5056605;28;20472;-82
2022/06/24 11:13:10;;;;;;;3.03;2.07;;;26.30;91.80;;;;;;5055633;28;20454;-82
2022/06/24 11:15:40;;;;;;;1.90;1.80;;;26.10;92.20;;;;;;5056492;28;20487;-82
2022/06/24 11:18:07;;;;;;;2.57;2.27;;;25.90;92.30;;;;;;5057825;28;20476;-82
2022/06/24 11:20:37;;;;;;;2.00;1.90;;;25.80;92.40;;;;;;5058197;28;20508;-82
2022/06/24 11:23:07;;;;;;;2.10;2.00;;;25.80;93.50;;;;;;5056221;28;20873;-82
2022/06/24 11:25:35;;;;;;;3.00;2.80;;;26.20;93.80;;;;;;5053942;28;20535;-82
2022/06/24 11:28:02;;;;;;;4.50;2.77;;;26.50;94.60;;;;;;5053949;28;20458;-84
2022/06/24 11:30:29;;;;;;;3.10;2.90;;;26.80;94.60;;;;;;5052522;28;20887;-84
2022/06/24 11:32:59;;;;;;;3.27;2.50;;;27.60;94.60;;;;;;5052059;28;20859;-82
2022/06/24 11:35:27;;;;;;;3.50;3.07;;;28.60;91.50;;;;;;5051980;28;20459;-83
2022/06/24 11:37:56;;;;;;;5.40;2.87;;;29.10;90.20;;;;;;5051544;28;20494;-82
2022/06/24 11:40:24;;;;;;;2.93;2.73;;;28.70;90.10;;;;;;5051600;28;20544;-84
2022/06/24 11:42:52;;;;;;;3.60;3.30;;;28.00;90.40;;;;;;5051557;28;20482;-83
2022/06/24 11:45:31;;;;;;;2.80;2.40;;;27.70;91.30;;;;;;5052368;28;21005;-83
2022/06/24 11:48:00;;;;;;;4.67;4.23;;;27.20;91.80;;;;;;5051824;28;20485;-82
2022/06/24 11:50:27;;;;;;;5.20;4.73;;;26.90;92.50;;;;;;5051733;28;20538;-83
2022/06/24 11:52:56;;;;;;;5.53;3.67;;;26.80;92.80;;;;;;5051692;28;20867;-83
2022/06/24 11:55:24;;;;;;;3.93;2.77;;;26.50;93.40;;;;;;5051871;28;20451;-83
2022/06/24 11:57:54;;;;;;;3.47;3.17;;;25.70;94.50;;;;;;5051954;28;20536;-82
2022/06/24 12:00:21;;;;;;;3.33;3.13;;;25.40;95.50;;;;;;5051620;28;20453;-82
2022/06/24 12:02:49;;;;;;;3.83;3.20;;;25.20;95.90;;;;;;5053336;28;20468;-82
2022/06/24 12:05:17;;;;;;;2.83;2.53;;;25.30;95.50;;;;;;5059631;28;20449;-83
2022/06/24 12:07:44;;;;;;;2.77;2.60;;;25.30;95.80;;;;;;5056272;28;20453;-82
2022/06/24 12:10:12;;;;;;;3.60;3.20;;;25.50;95.30;;;;;;5052147;28;20454;-82
2022/06/24 12:12:55;;;;;;;6.83;2.77;;;25.70;94.80;;;;;;5050691;28;20474;-83
2022/06/24 12:15:23;;;;;;;6.27;2.17;;;25.90;94.20;;;;;;5051154;28;20458;-83
2022/06/24 12:17:52;;;;;;;2.53;2.33;;;26.10;93.60;;;;;;5061174;28;20487;-82
2022/06/24 12:20:24;;;;;;;2.80;2.60;;;26.40;92.90;;;;;;5060083;28;20470;-82
2022/06/24 12:23:13;;;;;;;2.13;1.93;;;26.90;92.30;;;;;;5063677;28;20506;-83
2022/06/24 12:25:41;;;;;;;2.00;1.90;;;27.10;91.20;;;;;;5055301;28;20452;-84
2022/06/24 12:28:19;;;;;;;3.70;3.37;;;27.00;90.50;;;;;;5055663;28;20794;-84
2022/06/24 12:31:06;;;;;;;2.63;2.23;;;27.20;90.90;;;;;;5056058;28;20529;-83
2022/06/24 12:33:35;;;;;;;2.40;2.07;;;27.00;91.00;;;;;;5057841;28;20452;-83
2022/06/24 12:36:12;;;;;;;2.80;2.30;;;27.20;90.00;;;;;;5057694;28;20459;-84
2022/06/24 12:38:41;;;;;;;2.17;1.93;;;26.80;88.40;;;;;;5058398;28;20491;-84
2022/06/24 12:41:13;;;;;;;4.33;2.20;;;26.30;89.90;;;;;;5063216;28;20477;-83
2022/06/24 12:43:54;;;;;;;2.67;1.80;;;25.70;91.00;;;;;;5060452;28;20840;-84
2022/06/24 12:46:22;;;;;;;2.43;1.70;;;25.20;92.40;;;;;;5059095;28;20458;-83
2022/06/24 12:51:41;;;;;;;2.50;2.30;;;24.70;93.80;;;;;;5058172;28;20463;-83
2022/06/24 12:54:08;;;;;;;4.27;2.07;;;24.20;97.00;;;;;;5061680;28;20459;-85
2022/06/24 12:56:36;;;;;;;3.30;2.57;;;23.50;99.40;;;;;;5067884;28;20464;-84
2022/06/24 12:59:03;;;;;;;3.27;3.00;;;22.80;99.90;;;;;;5056436;28;20866;-82
2022/06/24 13:01:31;;;;;;;4.63;2.60;;;22.30;99.90;;;;;;5052817;28;21056;-83
2022/06/24 13:03:58;;;;;;;3.73;3.30;;;21.90;99.90;;;;;;5046087;28;20895;-82
2022/06/24 13:06:25;;;;;;;3.00;2.70;;;21.70;99.90;;;;;;5049604;28;20449;-82
2022/06/24 13:08:55;;;;;;;8.87;4.73;;;21.40;99.90;;;;;;5060039;28;20456;-83
2022/06/24 13:11:22;;;;;;;8.50;5.53;;;21.00;99.90;;;;;;5046916;28;20480;-82
2022/06/24 13:13:49;;;;;;;5.10;4.30;;;20.70;99.90;;;;;;5053336;28;20464;-83
2022/06/24 13:16:16;;;;;;;4.83;4.43;;;20.40;99.90;;;;;;5059066;28;20453;-83
2022/06/24 13:18:43;;;;;;;4.97;4.67;;;20.30;99.90;;;;;;5059581;28;20472;-82
2022/06/24 13:21:14;;;;;;;4.93;4.60;;;20.20;99.90;;;;;;5058519;28;20464;-81
2022/06/24 13:23:40;;;;;;;4.20;3.90;;;20.00;99.90;;;;;;5059786;28;20448;-82
2022/06/24 13:26:08;;;;;;;5.00;4.60;;;20.00;99.90;;;;;;5061747;28;20479;-82
2022/06/24 13:28:48;;;;;;;4.60;4.23;;;20.10;99.90;;;;;;5061118;28;20454;-84
2022/06/24 13:34:16;;;;;;;4.43;4.13;;;20.30;99.90;;;;;;5059648;28;21035;-82
2022/06/24 13:36:43;;;;;;;4.17;3.87;;;20.50;99.90;;;;;;5059990;28;20452;-83
2022/06/24 13:39:09;;;;;;;5.00;4.53;;;20.60;99.90;;;;;;5055483;28;20497;-83
2022/06/24 13:41:38;;;;;;;8.93;4.40;;;20.70;99.90;;;;;;5054385;28;20996;-84
2022/06/24 13:44:05;;;;;;;7.07;4.47;;;20.80;99.90;;;;;;5055447;28;20466;-82
2022/06/24 13:46:31;;;;;;;4.27;3.90;;;20.80;99.90;;;;;;5053617;28;20456;-82
2022/06/24 13:51:57;;;;;;;6.53;4.83;;;21.00;99.90;;;;;;5056423;28;20852;-84
2022/06/24 13:54:41;;;;;;;4.47;4.07;;;21.10;99.90;;;;;;5053978;28;20535;-86